<?xml version="1.0" encoding="UTF-8" standalone="no" ?>
<gpx xmlns="http://www.topografix.com/GPX/1/1" xmlns:xsi="http://www.w3.org/2001/XMLSchema-instance" xsi:schemaLocation="http://www.topografix.com/GPX/1/1 http://www.topografix.com/GPX/1/1/gpx.xsd" version="1.1" creator="VisuGPX - https://www.visugpx.com">
  <metadata>
    <name>leBourg-02déc2-11km</name>
  </metadata>
  <trk>
    <name><![CDATA[13997635-leBourg-pedestre]]></name>
    <extensions>
      <line xmlns="http://www.topografix.com/GPX/gpx_style/0/2">
        <color>0000FF</color>
        <width>4</width>
      </line>
    </extensions>
    <trkseg>
      <trkpt lat="46.65715" lon="-1.40393">
        <ele>64</ele>
        <time>2021-12-02T17:45:15Z</time>
      </trkpt>
      <trkpt lat="46.65642" lon="-1.4031">
        <ele>63</ele>
        <time>2021-12-02T17:47:19Z</time>
      </trkpt>
      <trkpt lat="46.65621" lon="-1.40271">
        <ele>62</ele>
        <time>2021-12-02T17:48:04Z</time>
      </trkpt>
      <trkpt lat="46.65549" lon="-1.40231">
        <ele>58</ele>
        <time>2021-12-02T17:49:47Z</time>
      </trkpt>
      <trkpt lat="46.65502" lon="-1.40164">
        <ele>52</ele>
        <time>2021-12-02T17:51:15Z</time>
      </trkpt>
      <trkpt lat="46.65487" lon="-1.40134">
        <ele>53</ele>
        <time>2021-12-02T17:51:49Z</time>
      </trkpt>
      <trkpt lat="46.65479" lon="-1.40052">
        <ele>53</ele>
        <time>2021-12-02T17:53:04Z</time>
      </trkpt>
      <trkpt lat="46.6549" lon="-1.39968">
        <ele>52</ele>
        <time>2021-12-02T17:54:23Z</time>
      </trkpt>
      <trkpt lat="46.65444" lon="-1.39866">
        <ele>53</ele>
        <time>2021-12-02T17:56:15Z</time>
      </trkpt>
      <trkpt lat="46.65406" lon="-1.39776">
        <ele>53</ele>
        <time>2021-12-02T17:57:51Z</time>
      </trkpt>
      <trkpt lat="46.6536" lon="-1.39705">
        <ele>54</ele>
        <time>2021-12-02T17:59:21Z</time>
      </trkpt>
      <trkpt lat="46.65339" lon="-1.39619">
        <ele>55</ele>
        <time>2021-12-02T18:00:44Z</time>
      </trkpt>
      <trkpt lat="46.65397" lon="-1.39651">
        <ele>56</ele>
        <time>2021-12-02T18:02:07Z</time>
      </trkpt>
      <trkpt lat="46.6545" lon="-1.39587">
        <ele>59</ele>
        <time>2021-12-02T18:03:39Z</time>
      </trkpt>
      <trkpt lat="46.65506" lon="-1.39488">
        <ele>62</ele>
        <time>2021-12-02T18:05:36Z</time>
      </trkpt>
      <trkpt lat="46.65541" lon="-1.39368">
        <ele>65</ele>
        <time>2021-12-02T18:07:36Z</time>
      </trkpt>
      <trkpt lat="46.6545" lon="-1.39335">
        <ele>62</ele>
        <time>2021-12-02T18:09:41Z</time>
      </trkpt>
      <trkpt lat="46.65346" lon="-1.39299">
        <ele>60</ele>
        <time>2021-12-02T18:12:04Z</time>
      </trkpt>
      <trkpt lat="46.65287" lon="-1.39243">
        <ele>59</ele>
        <time>2021-12-02T18:13:38Z</time>
      </trkpt>
      <trkpt lat="46.6531" lon="-1.39205">
        <ele>60</ele>
        <time>2021-12-02T18:14:24Z</time>
      </trkpt>
      <trkpt lat="46.6536" lon="-1.39164">
        <ele>61</ele>
        <time>2021-12-02T18:15:41Z</time>
      </trkpt>
      <trkpt lat="46.65395" lon="-1.39103">
        <ele>62</ele>
        <time>2021-12-02T18:16:53Z</time>
      </trkpt>
      <trkpt lat="46.65413" lon="-1.39041">
        <ele>62</ele>
        <time>2021-12-02T18:17:55Z</time>
      </trkpt>
      <trkpt lat="46.65462" lon="-1.38935">
        <ele>64</ele>
        <time>2021-12-02T18:19:52Z</time>
      </trkpt>
      <trkpt lat="46.65648" lon="-1.38748">
        <ele>70</ele>
        <time>2021-12-02T18:24:54Z</time>
      </trkpt>
      <trkpt lat="46.65683" lon="-1.38733">
        <ele>72</ele>
        <time>2021-12-02T18:25:42Z</time>
      </trkpt>
      <trkpt lat="46.65833" lon="-1.38654">
        <ele>77</ele>
        <time>2021-12-02T18:29:15Z</time>
      </trkpt>
      <trkpt lat="46.65937" lon="-1.38559">
        <ele>80</ele>
        <time>2021-12-02T18:31:59Z</time>
      </trkpt>
      <trkpt lat="46.65924" lon="-1.38483">
        <ele>79</ele>
        <time>2021-12-02T18:33:11Z</time>
      </trkpt>
      <trkpt lat="46.65933" lon="-1.38403">
        <ele>77</ele>
        <time>2021-12-02T18:34:25Z</time>
      </trkpt>
      <trkpt lat="46.65956" lon="-1.38268">
        <ele>77</ele>
        <time>2021-12-02T18:36:32Z</time>
      </trkpt>
      <trkpt lat="46.65977" lon="-1.38164">
        <ele>78</ele>
        <time>2021-12-02T18:38:12Z</time>
      </trkpt>
      <trkpt lat="46.65953" lon="-1.38108">
        <ele>77</ele>
        <time>2021-12-02T18:39:12Z</time>
      </trkpt>
      <trkpt lat="46.6595" lon="-1.38031">
        <ele>77</ele>
        <time>2021-12-02T18:40:23Z</time>
      </trkpt>
      <trkpt lat="46.65941" lon="-1.37964">
        <ele>77</ele>
        <time>2021-12-02T18:41:25Z</time>
      </trkpt>
      <trkpt lat="46.65951" lon="-1.37885">
        <ele>78</ele>
        <time>2021-12-02T18:42:39Z</time>
      </trkpt>
      <trkpt lat="46.65949" lon="-1.37834">
        <ele>78</ele>
        <time>2021-12-02T18:43:26Z</time>
      </trkpt>
      <trkpt lat="46.65944" lon="-1.37774">
        <ele>78</ele>
        <time>2021-12-02T18:44:21Z</time>
      </trkpt>
      <trkpt lat="46.66024" lon="-1.379">
        <ele>80</ele>
        <time>2021-12-02T18:46:58Z</time>
      </trkpt>
      <trkpt lat="46.66134" lon="-1.37954">
        <ele>81</ele>
        <time>2021-12-02T18:49:33Z</time>
      </trkpt>
      <trkpt lat="46.65917" lon="-1.37665">
        <ele>78</ele>
        <time>2021-12-02T18:56:06Z</time>
      </trkpt>
      <trkpt lat="46.65854" lon="-1.3758">
        <ele>79</ele>
        <time>2021-12-02T18:58:00Z</time>
      </trkpt>
      <trkpt lat="46.65812" lon="-1.37554">
        <ele>80</ele>
        <time>2021-12-02T18:59:01Z</time>
      </trkpt>
      <trkpt lat="46.65765" lon="-1.37549">
        <ele>81</ele>
        <time>2021-12-02T19:00:04Z</time>
      </trkpt>
      <trkpt lat="46.65774" lon="-1.37517">
        <ele>81</ele>
        <time>2021-12-02T19:00:36Z</time>
      </trkpt>
      <trkpt lat="46.65787" lon="-1.37499">
        <ele>81</ele>
        <time>2021-12-02T19:01:00Z</time>
      </trkpt>
      <trkpt lat="46.65789" lon="-1.37475">
        <ele>81</ele>
        <time>2021-12-02T19:01:22Z</time>
      </trkpt>
      <trkpt lat="46.65767" lon="-1.37388">
        <ele>81</ele>
        <time>2021-12-02T19:02:47Z</time>
      </trkpt>
      <trkpt lat="46.6574" lon="-1.37186">
        <ele>82</ele>
        <time>2021-12-02T19:05:55Z</time>
      </trkpt>
      <trkpt lat="46.65733" lon="-1.37083">
        <ele>82</ele>
        <time>2021-12-02T19:07:30Z</time>
      </trkpt>
      <trkpt lat="46.65738" lon="-1.37033">
        <ele>81</ele>
        <time>2021-12-02T19:08:16Z</time>
      </trkpt>
      <trkpt lat="46.65768" lon="-1.36948">
        <ele>79</ele>
        <time>2021-12-02T19:09:44Z</time>
      </trkpt>
      <trkpt lat="46.65778" lon="-1.36839">
        <ele>80</ele>
        <time>2021-12-02T19:11:24Z</time>
      </trkpt>
      <trkpt lat="46.65711" lon="-1.36858">
        <ele>80</ele>
        <time>2021-12-02T19:12:56Z</time>
      </trkpt>
      <trkpt lat="46.65641" lon="-1.36865">
        <ele>81</ele>
        <time>2021-12-02T19:14:29Z</time>
      </trkpt>
      <trkpt lat="46.65558" lon="-1.36843">
        <ele>82</ele>
        <time>2021-12-02T19:16:22Z</time>
      </trkpt>
      <trkpt lat="46.65465" lon="-1.36839">
        <ele>81</ele>
        <time>2021-12-02T19:18:26Z</time>
      </trkpt>
      <trkpt lat="46.65408" lon="-1.36842">
        <ele>81</ele>
        <time>2021-12-02T19:19:42Z</time>
      </trkpt>
      <trkpt lat="46.65111" lon="-1.36878">
        <ele>81</ele>
        <time>2021-12-02T19:26:20Z</time>
      </trkpt>
      <trkpt lat="46.65046" lon="-1.36895">
        <ele>81</ele>
        <time>2021-12-02T19:27:48Z</time>
      </trkpt>
      <trkpt lat="46.64903" lon="-1.36878">
        <ele>81</ele>
        <time>2021-12-02T19:30:59Z</time>
      </trkpt>
      <trkpt lat="46.64862" lon="-1.36858">
        <ele>79</ele>
        <time>2021-12-02T19:31:57Z</time>
      </trkpt>
      <trkpt lat="46.64824" lon="-1.36842">
        <ele>79</ele>
        <time>2021-12-02T19:32:50Z</time>
      </trkpt>
      <trkpt lat="46.64763" lon="-1.36825">
        <ele>79</ele>
        <time>2021-12-02T19:34:13Z</time>
      </trkpt>
      <trkpt lat="46.64688" lon="-1.36779">
        <ele>79</ele>
        <time>2021-12-02T19:36:01Z</time>
      </trkpt>
      <trkpt lat="46.64659" lon="-1.36768">
        <ele>79</ele>
        <time>2021-12-02T19:36:41Z</time>
      </trkpt>
      <trkpt lat="46.64622" lon="-1.3676">
        <ele>80</ele>
        <time>2021-12-02T19:37:31Z</time>
      </trkpt>
      <trkpt lat="46.64597" lon="-1.36756">
        <ele>81</ele>
        <time>2021-12-02T19:38:05Z</time>
      </trkpt>
      <trkpt lat="46.6458" lon="-1.36755">
        <ele>81</ele>
        <time>2021-12-02T19:38:27Z</time>
      </trkpt>
      <trkpt lat="46.64554" lon="-1.36769">
        <ele>80</ele>
        <time>2021-12-02T19:39:04Z</time>
      </trkpt>
      <trkpt lat="46.64525" lon="-1.36797">
        <ele>79</ele>
        <time>2021-12-02T19:39:51Z</time>
      </trkpt>
      <trkpt lat="46.64501" lon="-1.36811">
        <ele>79</ele>
        <time>2021-12-02T19:40:25Z</time>
      </trkpt>
      <trkpt lat="46.64466" lon="-1.36825">
        <ele>77</ele>
        <time>2021-12-02T19:41:14Z</time>
      </trkpt>
      <trkpt lat="46.64437" lon="-1.36847">
        <ele>76</ele>
        <time>2021-12-02T19:41:57Z</time>
      </trkpt>
      <trkpt lat="46.64417" lon="-1.3687">
        <ele>76</ele>
        <time>2021-12-02T19:42:31Z</time>
      </trkpt>
      <trkpt lat="46.64359" lon="-1.36944">
        <ele>75</ele>
        <time>2021-12-02T19:44:14Z</time>
      </trkpt>
      <trkpt lat="46.64348" lon="-1.36972">
        <ele>74</ele>
        <time>2021-12-02T19:44:44Z</time>
      </trkpt>
      <trkpt lat="46.64322" lon="-1.37017">
        <ele>74</ele>
        <time>2021-12-02T19:45:38Z</time>
      </trkpt>
      <trkpt lat="46.64285" lon="-1.37033">
        <ele>73</ele>
        <time>2021-12-02T19:46:29Z</time>
      </trkpt>
      <trkpt lat="46.64243" lon="-1.37071">
        <ele>72</ele>
        <time>2021-12-02T19:47:35Z</time>
      </trkpt>
      <trkpt lat="46.64197" lon="-1.37139">
        <ele>71</ele>
        <time>2021-12-02T19:49:03Z</time>
      </trkpt>
      <trkpt lat="46.6419" lon="-1.37199">
        <ele>71</ele>
        <time>2021-12-02T19:49:58Z</time>
      </trkpt>
      <trkpt lat="46.64174" lon="-1.37265">
        <ele>70</ele>
        <time>2021-12-02T19:51:03Z</time>
      </trkpt>
      <trkpt lat="46.64146" lon="-1.37381">
        <ele>70</ele>
        <time>2021-12-02T19:52:55Z</time>
      </trkpt>
      <trkpt lat="46.641" lon="-1.37394">
        <ele>69</ele>
        <time>2021-12-02T19:53:58Z</time>
      </trkpt>
      <trkpt lat="46.64053" lon="-1.3738">
        <ele>67</ele>
        <time>2021-12-02T19:55:02Z</time>
      </trkpt>
      <trkpt lat="46.64025" lon="-1.37355">
        <ele>65</ele>
        <time>2021-12-02T19:55:46Z</time>
      </trkpt>
      <trkpt lat="46.64007" lon="-1.37324">
        <ele>63</ele>
        <time>2021-12-02T19:56:23Z</time>
      </trkpt>
      <trkpt lat="46.64019" lon="-1.3726">
        <ele>64</ele>
        <time>2021-12-02T19:57:24Z</time>
      </trkpt>
      <trkpt lat="46.64024" lon="-1.37223">
        <ele>64</ele>
        <time>2021-12-02T19:57:58Z</time>
      </trkpt>
      <trkpt lat="46.64012" lon="-1.37167">
        <ele>63</ele>
        <time>2021-12-02T19:58:52Z</time>
      </trkpt>
      <trkpt lat="46.63983" lon="-1.37134">
        <ele>64</ele>
        <time>2021-12-02T19:59:41Z</time>
      </trkpt>
      <trkpt lat="46.63956" lon="-1.37107">
        <ele>64</ele>
        <time>2021-12-02T20:00:25Z</time>
      </trkpt>
      <trkpt lat="46.63924" lon="-1.37094">
        <ele>63</ele>
        <time>2021-12-02T20:01:09Z</time>
      </trkpt>
      <trkpt lat="46.63888" lon="-1.37103">
        <ele>63</ele>
        <time>2021-12-02T20:01:58Z</time>
      </trkpt>
      <trkpt lat="46.6389" lon="-1.37259">
        <ele>62</ele>
        <time>2021-12-02T20:04:21Z</time>
      </trkpt>
      <trkpt lat="46.63897" lon="-1.37346">
        <ele>62</ele>
        <time>2021-12-02T20:05:41Z</time>
      </trkpt>
      <trkpt lat="46.63896" lon="-1.37361">
        <ele>63</ele>
        <time>2021-12-02T20:05:55Z</time>
      </trkpt>
      <trkpt lat="46.63912" lon="-1.37411">
        <ele>63</ele>
        <time>2021-12-02T20:06:45Z</time>
      </trkpt>
      <trkpt lat="46.63927" lon="-1.37438">
        <ele>63</ele>
        <time>2021-12-02T20:07:17Z</time>
      </trkpt>
      <trkpt lat="46.63941" lon="-1.37478">
        <ele>63</ele>
        <time>2021-12-02T20:07:58Z</time>
      </trkpt>
      <trkpt lat="46.63922" lon="-1.37606">
        <ele>63</ele>
        <time>2021-12-02T20:09:58Z</time>
      </trkpt>
      <trkpt lat="46.63892" lon="-1.37655">
        <ele>62</ele>
        <time>2021-12-02T20:10:58Z</time>
      </trkpt>
      <trkpt lat="46.63858" lon="-1.37765">
        <ele>62</ele>
        <time>2021-12-02T20:12:49Z</time>
      </trkpt>
      <trkpt lat="46.6385" lon="-1.37858">
        <ele>59.2</ele>
      </trkpt>
      <trkpt lat="46.63824" lon="-1.3795">
        <ele>58.8</ele>
        <time>2021-12-02T20:16:02Z</time>
      </trkpt>
      <trkpt lat="46.63837" lon="-1.38067">
        <ele>59.4</ele>
      </trkpt>
      <trkpt lat="46.63839" lon="-1.38118">
        <ele>59.5</ele>
        <time>2021-12-02T20:18:19Z</time>
      </trkpt>
      <trkpt lat="46.63814" lon="-1.38228">
        <ele>56.9</ele>
      </trkpt>
      <trkpt lat="46.63852" lon="-1.38302">
        <ele>57.2</ele>
        <time>2021-12-02T20:20:27Z</time>
      </trkpt>
      <trkpt lat="46.63893" lon="-1.38405">
        <ele>56.4</ele>
        <time>2021-12-02T20:22:47Z</time>
      </trkpt>
      <trkpt lat="46.639" lon="-1.38541">
        <ele>56.6</ele>
        <time>2021-12-02T20:24:55Z</time>
      </trkpt>
      <trkpt lat="46.63921" lon="-1.38702">
        <ele>58</ele>
        <time>2021-12-02T20:27:34Z</time>
      </trkpt>
      <trkpt lat="46.63921" lon="-1.38772">
        <ele>55.7</ele>
      </trkpt>
      <trkpt lat="46.6393" lon="-1.3887">
        <ele>56.3</ele>
        <time>2021-12-02T20:29:46Z</time>
      </trkpt>
      <trkpt lat="46.63911" lon="-1.38993">
        <ele>55.4</ele>
      </trkpt>
      <trkpt lat="46.63908" lon="-1.39113">
        <ele>56.1</ele>
        <time>2021-12-02T20:34:02Z</time>
      </trkpt>
      <trkpt lat="46.6397" lon="-1.39149">
        <ele>63.7</ele>
      </trkpt>
      <trkpt lat="46.64029" lon="-1.39154">
        <ele>69</ele>
        <time>2021-12-02T20:36:16Z</time>
      </trkpt>
      <trkpt lat="46.64122" lon="-1.39188">
        <ele>72.4</ele>
        <time>2021-12-02T20:38:25Z</time>
      </trkpt>
      <trkpt lat="46.6416" lon="-1.39213">
        <ele>71</ele>
        <time>2021-12-02T20:39:19Z</time>
      </trkpt>
      <trkpt lat="46.64241" lon="-1.39269">
        <ele>72</ele>
        <time>2021-12-02T20:41:18Z</time>
      </trkpt>
      <trkpt lat="46.64291" lon="-1.39318">
        <ele>72</ele>
        <time>2021-12-02T20:42:39Z</time>
      </trkpt>
      <trkpt lat="46.64322" lon="-1.39323">
        <ele>72</ele>
        <time>2021-12-02T20:43:20Z</time>
      </trkpt>
      <trkpt lat="46.64368" lon="-1.3946">
        <ele>71</ele>
        <time>2021-12-02T20:45:40Z</time>
      </trkpt>
      <trkpt lat="46.64415" lon="-1.39535">
        <ele>72</ele>
        <time>2021-12-02T20:47:13Z</time>
      </trkpt>
      <trkpt lat="46.64438" lon="-1.39627">
        <ele>71</ele>
        <time>2021-12-02T20:48:43Z</time>
      </trkpt>
      <trkpt lat="46.64463" lon="-1.39796">
        <ele>73</ele>
        <time>2021-12-02T20:51:19Z</time>
      </trkpt>
      <trkpt lat="46.64502" lon="-1.39941">
        <ele>71</ele>
        <time>2021-12-02T20:53:45Z</time>
      </trkpt>
      <trkpt lat="46.64519" lon="-1.40049">
        <ele>71.2</ele>
      </trkpt>
      <trkpt lat="46.6453" lon="-1.40133">
        <ele>71.1</ele>
      </trkpt>
      <trkpt lat="46.64553" lon="-1.40145">
        <ele>71.7</ele>
        <time>2021-12-02T20:56:46Z</time>
      </trkpt>
      <trkpt lat="46.6472" lon="-1.402">
        <ele>69</ele>
        <time>2021-12-02T21:00:50Z</time>
      </trkpt>
      <trkpt lat="46.64801" lon="-1.40189">
        <ele>67</ele>
        <time>2021-12-02T21:02:38Z</time>
      </trkpt>
      <trkpt lat="46.64895" lon="-1.40114">
        <ele>66</ele>
        <time>2021-12-02T21:05:01Z</time>
      </trkpt>
      <trkpt lat="46.64967" lon="-1.40046">
        <ele>65</ele>
        <time>2021-12-02T21:06:56Z</time>
      </trkpt>
      <trkpt lat="46.65039" lon="-1.40005">
        <ele>64</ele>
        <time>2021-12-02T21:08:39Z</time>
      </trkpt>
      <trkpt lat="46.65286" lon="-1.40042">
        <ele>59</ele>
        <time>2021-12-02T21:14:10Z</time>
      </trkpt>
      <trkpt lat="46.6537" lon="-1.40056">
        <ele>56</ele>
        <time>2021-12-02T21:16:03Z</time>
      </trkpt>
      <trkpt lat="46.65427" lon="-1.40081">
        <ele>54</ele>
        <time>2021-12-02T21:17:22Z</time>
      </trkpt>
      <trkpt lat="46.65469" lon="-1.4005">
        <ele>53</ele>
        <time>2021-12-02T21:18:25Z</time>
      </trkpt>
      <trkpt lat="46.65481" lon="-1.40097">
        <ele>53</ele>
        <time>2021-12-02T21:19:11Z</time>
      </trkpt>
      <trkpt lat="46.65514" lon="-1.40203">
        <ele>55</ele>
        <time>2021-12-02T21:20:58Z</time>
      </trkpt>
      <trkpt lat="46.65564" lon="-1.40226">
        <ele>59</ele>
        <time>2021-12-02T21:22:08Z</time>
      </trkpt>
      <trkpt lat="46.65717" lon="-1.40411">
        <ele>64</ele>
        <time>2021-12-02T21:26:33Z</time>
      </trkpt>
    </trkseg>
  </trk>
</gpx>